createdAt,value
2023-04-29T00:01:23.072Z,4.57
2023-04-29T00:03:50.033Z,1.73
2023-04-29T00:06:17.162Z,2.20
2023-04-29T00:08:44.078Z,2.15
2023-04-29T00:11:14.053Z,3.80
2023-04-29T00:13:41.248Z,4.93
2023-04-29T00:16:10.317Z,2.70
2023-04-29T00:18:37.990Z,2.65
2023-04-29T00:21:06.065Z,1.88
2023-04-29T00:23:36.113Z,2.40
2023-04-29T00:26:03.444Z,3.10
2023-04-29T00:28:30.394Z,2.85
2023-04-29T00:30:57.345Z,3.08
2023-04-29T00:33:24.238Z,2.05
2023-04-29T00:35:51.137Z,2.78
2023-04-29T00:38:18.193Z,2.78
2023-04-29T00:40:45.297Z,2.63
2023-04-29T00:43:12.301Z,3.90
2023-04-29T00:45:40.500Z,1.92
2023-04-29T00:48:07.911Z,1.90
2023-04-29T00:50:35.026Z,5.57
2023-04-29T00:53:02.299Z,5.20
2023-04-29T00:55:29.839Z,2.17
2023-04-29T00:57:57.490Z,3.53
2023-04-29T01:00:26.253Z,4.13
2023-04-29T01:02:55.103Z,2.67
2023-04-29T01:05:21.945Z,3.92
2023-04-29T01:08:03.907Z,3.30
2023-04-29T01:10:41.810Z,3.55
2023-04-29T01:13:19.160Z,6.03
2023-04-29T01:16:03.686Z,2.85
2023-04-29T01:18:47.182Z,2.97
2023-04-29T01:21:13.969Z,3.55
2023-04-29T01:23:41.217Z,5.88
2023-04-29T01:26:08.308Z,2.63
2023-04-29T01:29:06.838Z,4.55
2023-04-29T01:31:46.989Z,3.58
2023-04-29T01:34:23.476Z,4.10
2023-04-29T01:37:18.310Z,3.80
2023-04-29T01:40:06.996Z,2.42
2023-04-29T01:42:44.275Z,3.85
2023-04-29T01:45:15.103Z,3.80
2023-04-29T01:47:43.159Z,4.70
2023-04-29T01:50:10.534Z,3.25
2023-04-29T01:52:37.621Z,3.45
2023-04-29T01:55:05.963Z,4.65
2023-04-29T01:57:33.189Z,4.05
2023-04-29T02:00:00.096Z,3.15
2023-04-29T02:02:27.005Z,3.65
2023-04-29T02:04:54.057Z,5.00
2023-04-29T02:07:21.014Z,4.22
2023-04-29T02:09:47.760Z,4.82
2023-04-29T02:12:14.576Z,4.80
2023-04-29T02:14:41.358Z,4.63
2023-04-29T02:17:08.201Z,5.03
2023-04-29T02:19:35.023Z,4.13
2023-04-29T02:22:01.892Z,6.03
2023-04-29T02:24:28.721Z,4.90
2023-04-29T02:26:56.103Z,3.75
2023-04-29T02:29:22.960Z,4.53
2023-04-29T02:31:49.789Z,5.47
2023-04-29T02:34:16.548Z,4.45
2023-04-29T02:36:43.601Z,3.55
2023-04-29T02:39:10.462Z,4.15
2023-04-29T02:41:37.536Z,5.38
2023-04-29T02:44:04.405Z,4.50
2023-04-29T02:46:33.509Z,3.33
2023-04-29T02:49:01.091Z,9.57
2023-04-29T02:51:28.434Z,6.35
2023-04-29T02:53:55.441Z,7.10
2023-04-29T02:56:23.556Z,4.47
2023-04-29T02:58:50.375Z,7.95
2023-04-29T03:01:17.227Z,7.20
2023-04-29T03:03:44.150Z,3.85
2023-04-29T03:06:11.111Z,4.82
2023-04-29T03:08:37.930Z,3.63
2023-04-29T03:11:04.745Z,3.45
2023-04-29T03:13:31.508Z,4.32
2023-04-29T03:16:00.550Z,6.70
2023-04-29T03:18:27.422Z,3.78
2023-04-29T03:20:54.311Z,3.22
2023-04-29T03:23:22.505Z,4.55
2023-04-29T03:25:50.009Z,6.32
2023-04-29T03:28:16.888Z,5.18
2023-04-29T03:30:43.641Z,10.25
2023-04-29T03:33:10.515Z,5.18
2023-04-29T03:35:37.385Z,3.95
2023-04-29T03:38:04.322Z,4.82
2023-04-29T03:40:31.253Z,4.30
2023-04-29T03:42:58.194Z,6.47
2023-04-29T03:45:25.016Z,6.75
2023-04-29T03:47:53.500Z,6.63
2023-04-29T03:50:20.366Z,9.02
2023-04-29T03:52:47.401Z,5.45
2023-04-29T03:55:14.243Z,3.28
2023-04-29T03:57:42.644Z,4.70
2023-04-29T04:00:10.229Z,3.83
2023-04-29T04:02:37.221Z,6.00
2023-04-29T04:05:04.388Z,4.63
2023-04-29T04:07:31.179Z,3.67
2023-04-29T04:09:58.016Z,4.90
2023-04-29T04:12:24.887Z,3.80
2023-04-29T04:14:52.390Z,5.13
2023-04-29T04:17:19.813Z,2.97
2023-04-29T04:19:46.606Z,5.43
2023-04-29T04:22:13.498Z,6.10
2023-04-29T04:24:40.326Z,4.07
2023-04-29T04:27:07.218Z,3.70
2023-04-29T04:29:34.073Z,4.38
2023-04-29T04:32:01.134Z,3.55
2023-04-29T04:34:27.985Z,6.68
2023-04-29T04:36:54.776Z,7.57
2023-04-29T04:39:21.586Z,4.78
2023-04-29T04:41:48.543Z,4.53
2023-04-29T04:44:15.482Z,3.92
2023-04-29T04:46:43.381Z,6.75
2023-04-29T04:49:10.207Z,4.53
2023-04-29T04:51:37.001Z,5.13
2023-04-29T04:54:03.878Z,5.70
2023-04-29T04:56:30.729Z,4.82
2023-04-29T04:58:57.529Z,5.65
2023-04-29T05:01:24.383Z,4.65
2023-04-29T05:03:51.356Z,4.55
2023-04-29T05:06:18.300Z,6.85
2023-04-29T05:08:45.102Z,3.53
2023-04-29T05:11:18.805Z,4.82
2023-04-29T05:13:45.972Z,5.90
2023-04-29T05:16:12.885Z,4.15
2023-04-29T05:18:40.091Z,5.57
2023-04-29T05:21:06.906Z,3.22
2023-04-29T05:23:33.659Z,2.45
2023-04-29T05:26:00.544Z,3.88
2023-04-29T05:28:28.207Z,2.25
2023-04-29T05:30:55.452Z,2.47
2023-04-29T05:33:22.543Z,3.13
2023-04-29T05:35:49.307Z,2.45
2023-04-29T05:38:16.170Z,1.50
2023-04-29T05:40:42.985Z,3.08
2023-04-29T05:43:09.830Z,2.55
2023-04-29T05:45:36.606Z,1.80
2023-04-29T05:48:03.436Z,3.38
2023-04-29T05:50:30.789Z,1.65
2023-04-29T05:52:57.630Z,2.53
2023-04-29T05:55:24.516Z,2.75
2023-04-29T05:57:51.497Z,3.08
2023-04-29T06:00:18.359Z,3.63
2023-04-29T06:02:57.613Z,3.20
2023-04-29T06:05:26.509Z,2.80
2023-04-29T06:07:53.628Z,2.40
2023-04-29T06:10:20.525Z,1.90
2023-04-29T06:12:50.834Z,1.80
2023-04-29T06:15:17.969Z,0.77
2023-04-29T06:17:45.098Z,1.13
2023-04-29T06:20:12.548Z,5.78
2023-04-29T06:22:39.366Z,1.70
2023-04-29T06:25:06.699Z,3.15
2023-04-29T06:27:33.522Z,1.20
2023-04-29T06:30:00.642Z,1.92
2023-04-29T06:32:27.481Z,2.13
2023-04-29T06:34:54.301Z,3.92
2023-04-29T06:37:21.352Z,2.45
2023-04-29T06:39:48.228Z,2.33
2023-04-29T06:42:15.256Z,7.20
2023-04-29T06:44:42.080Z,3.88
2023-04-29T06:47:08.947Z,3.80
2023-04-29T06:49:35.799Z,5.50
2023-04-29T06:52:02.809Z,1.52
2023-04-29T06:54:29.713Z,2.42
2023-04-29T06:56:58.222Z,1.20
2023-04-29T06:59:25.196Z,5.00
2023-04-29T07:01:52.383Z,2.63
2023-04-29T07:04:19.298Z,2.20
2023-04-29T07:06:47.079Z,6.07
2023-04-29T07:09:14.750Z,1.38
2023-04-29T07:11:41.925Z,7.07
2023-04-29T07:14:09.129Z,2.33
2023-04-29T07:16:36.114Z,1.63
2023-04-29T07:19:03.004Z,2.95
2023-04-29T07:21:31.382Z,3.53
2023-04-29T07:24:00.860Z,3.33
2023-04-29T07:26:27.857Z,4.88
2023-04-29T07:28:54.848Z,1.42
2023-04-29T07:31:22.558Z,2.35
2023-04-29T07:33:49.449Z,2.08
2023-04-29T07:36:16.309Z,3.85
2023-04-29T07:38:43.076Z,1.73
2023-04-29T07:41:09.911Z,2.97
2023-04-29T07:43:36.954Z,1.63
2023-04-29T07:46:03.834Z,3.92
2023-04-29T07:48:30.732Z,3.40
2023-04-29T07:50:57.615Z,1.58
2023-04-29T07:53:24.481Z,4.40
2023-04-29T07:55:51.268Z,2.15
2023-04-29T07:58:18.064Z,3.30
2023-04-29T08:00:45.218Z,2.30
2023-04-29T08:03:12.328Z,1.95
2023-04-29T08:05:39.436Z,1.10
2023-04-29T08:08:06.833Z,3.33
2023-04-29T08:10:33.640Z,2.42
2023-04-29T08:13:00.538Z,3.30
2023-04-29T08:15:27.540Z,2.88
2023-04-29T08:17:54.479Z,2.40
2023-04-29T08:20:21.520Z,5.40
2023-04-29T08:22:48.561Z,2.42
2023-04-29T08:25:15.990Z,1.30
2023-04-29T08:27:45.276Z,2.97
2023-04-29T08:30:12.687Z,2.38
2023-04-29T08:32:39.494Z,4.00
2023-04-29T08:35:06.854Z,4.40
2023-04-29T08:37:33.638Z,2.30
2023-04-29T08:40:00.423Z,1.48
2023-04-29T08:42:35.106Z,3.15
2023-04-29T08:45:03.363Z,3.33
2023-04-29T08:47:31.297Z,1.20
2023-04-29T08:50:05.587Z,5.25
2023-04-29T08:52:32.965Z,3.45
2023-04-29T08:55:02.486Z,2.53
2023-04-29T08:57:31.092Z,2.00
2023-04-29T09:00:01.360Z,2.95
2023-04-29T09:02:29.136Z,1.75
2023-04-29T09:04:56.570Z,2.00
2023-04-29T09:07:24.410Z,2.38
2023-04-29T09:09:53.121Z,2.92
2023-04-29T09:12:20.005Z,2.15
2023-04-29T09:14:46.806Z,2.75
2023-04-29T09:17:16.374Z,2.15
2023-04-29T09:19:44.599Z,2.13
2023-04-29T09:22:11.656Z,2.33
2023-04-29T09:24:39.920Z,4.35
2023-04-29T09:27:06.837Z,1.83
2023-04-29T09:29:34.904Z,3.17
2023-04-29T09:32:18.380Z,3.85
2023-04-29T09:34:45.310Z,4.35
2023-04-29T09:37:28.329Z,3.40
2023-04-29T09:39:55.432Z,3.30
2023-04-29T09:42:22.334Z,3.40
2023-04-29T09:44:50.363Z,2.55
2023-04-29T09:47:17.432Z,2.42
2023-04-29T09:49:48.876Z,1.67
2023-04-29T09:52:18.236Z,2.10
2023-04-29T09:54:45.305Z,2.95
2023-04-29T09:57:13.107Z,2.90
2023-04-29T09:59:41.643Z,3.30
2023-04-29T10:02:18.946Z,1.58
2023-04-29T10:04:47.792Z,4.07
2023-04-29T10:07:16.793Z,4.25
2023-04-29T10:09:45.829Z,5.05
2023-04-29T10:12:16.402Z,1.65
2023-04-29T10:15:12.541Z,2.00
2023-04-29T10:17:49.444Z,1.83
2023-04-29T10:20:25.621Z,2.03
2023-04-29T10:22:57.936Z,1.90
2023-04-29T10:25:26.234Z,2.35
2023-04-29T10:27:55.971Z,2.72
2023-04-29T10:30:23.088Z,2.45
2023-04-29T10:32:52.466Z,4.40
2023-04-29T10:35:24.520Z,4.82
2023-04-29T10:37:53.004Z,2.70
2023-04-29T10:40:36.936Z,1.83
2023-04-29T10:43:04.773Z,4.00
2023-04-29T10:45:35.077Z,1.38
2023-04-29T10:48:02.182Z,2.95
2023-04-29T10:50:29.821Z,3.35
2023-04-29T10:52:57.822Z,2.50
2023-04-29T10:55:25.773Z,1.45
2023-04-29T10:57:57.012Z,0.68
2023-04-29T11:00:27.296Z,2.03
2023-04-29T11:02:55.753Z,3.30
2023-04-29T11:05:36.682Z,1.65
2023-04-29T11:08:24.046Z,2.60
2023-04-29T11:10:54.459Z,1.63
2023-04-29T11:13:23.893Z,2.35
2023-04-29T11:15:52.437Z,4.00
2023-04-29T11:18:19.522Z,3.60
2023-04-29T11:21:04.615Z,2.83
2023-04-29T11:23:33.883Z,2.63
2023-04-29T11:26:01.592Z,3.13
2023-04-29T11:28:29.980Z,1.55
2023-04-29T11:30:57.938Z,3.42
2023-04-29T11:33:27.286Z,1.85
2023-04-29T11:35:55.038Z,2.42
2023-04-29T11:38:30.231Z,1.40
2023-04-29T11:40:58.318Z,2.88
2023-04-29T11:43:25.660Z,1.45
2023-04-29T11:45:53.620Z,5.25
2023-04-29T11:48:25.125Z,2.63
2023-04-29T11:50:54.567Z,3.85
2023-04-29T11:53:22.468Z,1.77
2023-04-29T11:55:49.261Z,1.80
2023-04-29T11:58:16.650Z,3.35
2023-04-29T12:00:44.772Z,1.95
2023-04-29T12:03:16.037Z,1.10
2023-04-29T12:05:56.111Z,2.50
2023-04-29T12:08:23.702Z,1.52
2023-04-29T12:10:51.962Z,1.00
2023-04-29T12:13:19.739Z,2.83
2023-04-29T12:15:48.979Z,3.40
2023-04-29T12:18:18.006Z,2.97
2023-04-29T12:20:45.768Z,2.17
2023-04-29T12:23:16.574Z,2.30
2023-04-29T12:25:51.962Z,3.65
2023-04-29T12:28:19.505Z,3.03
2023-04-29T12:30:47.516Z,2.53
2023-04-29T12:33:24.537Z,3.08
2023-04-29T12:35:52.314Z,2.28
2023-04-29T12:38:29.626Z,2.60
2023-04-29T12:40:58.791Z,2.15
2023-04-29T12:43:36.068Z,3.63
2023-04-29T12:46:04.344Z,1.55
2023-04-29T12:48:33.469Z,2.28
2023-04-29T12:51:02.044Z,4.93
2023-04-29T12:53:32.132Z,1.25
2023-04-29T12:55:59.286Z,3.95
2023-04-29T12:58:30.365Z,3.67
2023-04-29T13:00:57.843Z,3.92
2023-04-29T13:03:25.092Z,3.00
2023-04-29T13:05:52.676Z,0.82
2023-04-29T13:08:20.389Z,5.13
2023-04-29T13:10:47.252Z,1.20
2023-04-29T13:13:14.098Z,1.85
2023-04-29T13:15:41.330Z,4.95
2023-04-29T13:18:08.429Z,1.40
2023-04-29T13:20:40.822Z,3.30
2023-04-29T13:23:09.111Z,3.60
2023-04-29T13:25:35.985Z,1.50
2023-04-29T13:28:02.980Z,2.15
2023-04-29T13:30:29.804Z,1.42
2023-04-29T13:33:01.237Z,1.75
2023-04-29T13:35:36.159Z,2.25
2023-04-29T13:38:03.091Z,2.40
2023-04-29T13:40:31.267Z,2.63
2023-04-29T13:43:06.011Z,2.45
2023-04-29T13:48:19.985Z,4.35
2023-04-29T13:56:47.641Z,2.25
2023-04-29T13:59:30.730Z,3.10
2023-04-29T14:03:57.727Z,2.75
2023-04-29T14:06:24.652Z,4.82
2023-04-29T14:08:51.539Z,1.40
2023-04-29T14:11:19.605Z,1.60
2023-04-29T14:13:46.409Z,4.15
2023-04-29T14:16:13.342Z,2.03
2023-04-29T14:18:40.363Z,3.17
2023-04-29T14:21:07.140Z,2.80
2023-04-29T14:23:33.902Z,2.80
2023-04-29T14:28:30.971Z,3.42
2023-04-29T14:30:57.868Z,2.17
2023-04-29T14:33:25.277Z,3.28
2023-04-29T14:35:52.105Z,4.47
2023-04-29T14:38:18.929Z,3.03
2023-04-29T14:40:45.779Z,3.60
2023-04-29T14:43:12.578Z,1.65
2023-04-29T14:45:39.415Z,3.92
2023-04-29T14:48:06.409Z,2.50
2023-04-29T14:50:33.267Z,1.55
2023-04-29T14:53:01.449Z,3.22
2023-04-29T14:55:30.794Z,4.55
2023-04-29T14:57:58.120Z,3.13
2023-04-29T15:00:24.935Z,3.55
2023-04-29T15:02:53.490Z,1.88
2023-04-29T15:05:20.298Z,4.40
2023-04-29T15:07:47.643Z,1.95
2023-04-29T15:10:14.402Z,2.17
2023-04-29T15:12:41.394Z,3.15
2023-04-29T15:15:09.019Z,7.13
2023-04-29T15:17:35.864Z,1.98
2023-04-29T15:20:03.126Z,2.72
2023-04-29T15:22:30.621Z,1.48
2023-04-29T15:24:57.487Z,2.15
2023-04-29T15:27:24.634Z,2.13
2023-04-29T15:29:54.446Z,2.70
2023-04-29T15:32:21.764Z,2.67
2023-04-29T15:34:48.664Z,0.80
2023-04-29T15:37:15.537Z,0.80
2023-04-29T15:39:42.391Z,2.30
2023-04-29T15:42:09.523Z,2.50
2023-04-29T15:44:36.379Z,2.17
2023-04-29T15:47:03.793Z,3.92
2023-04-29T15:49:31.068Z,3.95
2023-04-29T15:51:57.883Z,1.40
2023-04-29T15:54:24.697Z,1.92
2023-04-29T15:56:51.549Z,0.98
2023-04-29T15:59:18.344Z,2.08
2023-04-29T16:01:45.272Z,2.05
2023-04-29T16:04:12.216Z,1.90
2023-04-29T16:06:39.308Z,2.33
2023-04-29T16:09:06.286Z,6.10
2023-04-29T16:11:33.109Z,3.70
2023-04-29T16:13:59.883Z,0.90
2023-04-29T16:16:26.851Z,1.95
2023-04-29T16:18:53.684Z,1.50
2023-04-29T16:21:20.513Z,1.65
2023-04-29T16:23:47.864Z,3.35
2023-04-29T16:26:15.017Z,2.70
2023-04-29T16:28:41.967Z,1.67
2023-04-29T16:31:10.017Z,3.10
2023-04-29T16:33:36.787Z,5.35
2023-04-29T16:36:04.230Z,1.83
2023-04-29T16:38:31.176Z,1.80
2023-04-29T16:40:58.025Z,2.00
2023-04-29T16:43:24.854Z,3.42
2023-04-29T16:45:52.291Z,2.00
2023-04-29T16:48:19.202Z,2.88
2023-04-29T16:50:46.446Z,1.33
2023-04-29T16:53:13.996Z,4.60
2023-04-29T16:55:40.843Z,2.83
2023-04-29T16:58:08.011Z,4.13
2023-04-29T17:00:34.816Z,1.60
2023-04-29T17:03:01.741Z,3.40
2023-04-29T17:05:28.587Z,2.05
2023-04-29T17:07:55.712Z,2.22
2023-04-29T17:10:22.546Z,1.52
2023-04-29T17:12:49.603Z,1.70
2023-04-29T17:15:16.659Z,6.35
2023-04-29T17:17:43.506Z,2.72
2023-04-29T17:20:10.966Z,1.52
2023-04-29T17:22:37.804Z,4.57
2023-04-29T17:25:05.093Z,1.88
2023-04-29T17:27:32.149Z,3.15
2023-04-29T17:29:58.996Z,5.95
2023-04-29T17:32:29.377Z,4.95
2023-04-29T17:34:57.023Z,3.05
2023-04-29T17:37:25.727Z,3.17
2023-04-29T17:39:53.039Z,5.85
2023-04-29T17:42:23.347Z,6.68
2023-04-29T17:44:50.501Z,5.80
2023-04-29T17:47:17.431Z,4.43
2023-04-29T17:49:44.777Z,8.77
2023-04-29T17:52:12.585Z,5.47
2023-04-29T17:54:40.802Z,3.95
2023-04-29T17:57:08.720Z,3.03
2023-04-29T17:59:35.610Z,4.60
2023-04-29T18:02:02.419Z,5.38
2023-04-29T18:04:29.248Z,3.53
2023-04-29T18:06:56.095Z,7.32
2023-04-29T18:09:22.966Z,2.58
2023-04-29T18:11:49.723Z,4.55
2023-04-29T18:14:16.483Z,6.45
2023-04-29T18:16:43.378Z,4.43
2023-04-29T18:19:10.253Z,5.47
2023-04-29T18:21:37.073Z,5.32
2023-04-29T18:24:04.042Z,7.53
2023-04-29T18:26:30.869Z,7.22
2023-04-29T18:28:57.793Z,7.25
2023-04-29T18:31:26.547Z,3.65
2023-04-29T18:33:53.708Z,5.47
2023-04-29T18:36:23.825Z,5.90
2023-04-29T18:38:50.984Z,8.65
2023-04-29T18:41:17.813Z,5.70
2023-04-29T18:43:44.724Z,7.68
2023-04-29T18:46:11.553Z,8.35
2023-04-29T18:48:40.576Z,5.40
2023-04-29T18:51:07.469Z,4.75
2023-04-29T18:53:34.530Z,6.88
2023-04-29T18:56:01.443Z,4.60
2023-04-29T18:58:28.255Z,7.40
2023-04-29T19:00:57.549Z,6.47
2023-04-29T19:03:24.405Z,6.00
2023-04-29T19:05:51.345Z,6.38
2023-04-29T19:08:18.336Z,5.60
2023-04-29T19:10:45.800Z,4.05
2023-04-29T19:13:12.704Z,9.00
2023-04-29T19:15:39.614Z,6.43
2023-04-29T19:18:06.498Z,5.55
2023-04-29T19:20:34.177Z,9.15
2023-04-29T19:23:01.022Z,4.40
2023-04-29T19:25:27.857Z,5.88
2023-04-29T19:27:55.030Z,8.40
2023-04-29T19:30:21.979Z,8.88
2023-04-29T19:32:49.083Z,6.82
2023-04-29T19:35:16.042Z,10.02
2023-04-29T19:37:42.864Z,10.02
2023-04-29T19:40:11.379Z,9.07
2023-04-29T19:42:39.200Z,8.27
2023-04-29T19:45:07.699Z,5.97
2023-04-29T19:47:35.095Z,7.07
2023-04-29T19:50:02.666Z,7.93
2023-04-29T19:52:29.992Z,7.78
2023-04-29T19:54:56.922Z,7.60
2023-04-29T19:57:23.699Z,8.48
2023-04-29T19:59:50.528Z,5.43
2023-04-29T20:02:17.401Z,3.58
2023-04-29T20:04:44.236Z,6.30
2023-04-29T20:07:11.096Z,4.97
2023-04-29T20:09:38.054Z,8.48
2023-04-29T20:12:04.987Z,9.25
2023-04-29T20:14:32.942Z,4.18
2023-04-29T20:17:00.691Z,8.13
2023-04-29T20:19:27.835Z,8.63
2023-04-29T20:21:54.813Z,9.20
2023-04-29T20:24:21.747Z,9.18
2023-04-29T20:26:48.620Z,5.68
2023-04-29T20:29:15.638Z,7.72
2023-04-29T20:31:42.514Z,7.93
2023-04-29T20:34:09.397Z,9.55
2023-04-29T20:36:36.254Z,7.07
2023-04-29T20:39:03.535Z,6.30
2023-04-29T20:41:30.309Z,3.83
2023-04-29T20:43:58.675Z,7.05
2023-04-29T20:46:26.278Z,4.97
2023-04-29T20:48:53.648Z,5.45
2023-04-29T20:51:20.461Z,5.05
2023-04-29T20:53:47.974Z,4.70
2023-04-29T20:56:14.765Z,4.57
2023-04-29T20:58:41.568Z,4.53
2023-04-29T21:01:08.595Z,6.50
2023-04-29T21:03:35.502Z,6.55
2023-04-29T21:06:02.367Z,8.27
2023-04-29T21:08:29.157Z,6.65
2023-04-29T21:10:56.650Z,4.03
2023-04-29T21:13:23.526Z,7.15
2023-04-29T21:15:51.069Z,5.07
2023-04-29T21:18:18.027Z,7.18
2023-04-29T21:20:45.752Z,8.23
2023-04-29T21:23:12.534Z,5.80
2023-04-29T21:25:39.621Z,18.90
2023-04-29T21:28:06.652Z,8.18
2023-04-29T21:30:33.572Z,6.70
2023-04-29T21:33:00.463Z,8.32
2023-04-29T21:35:27.593Z,6.32
2023-04-29T21:37:54.564Z,7.90
2023-04-29T21:40:21.545Z,8.10
2023-04-29T21:42:49.330Z,5.63
2023-04-29T21:45:17.181Z,7.18
2023-04-29T21:47:44.383Z,6.18
2023-04-29T21:50:11.769Z,8.68
2023-04-29T21:52:38.721Z,8.32
2023-04-29T21:55:06.655Z,10.68
2023-04-29T21:57:43.632Z,5.78
2023-04-29T22:00:28.324Z,5.57
2023-04-29T22:02:55.170Z,10.25
2023-04-29T22:05:22.025Z,6.10
2023-04-29T22:07:48.895Z,6.40
2023-04-29T22:10:15.932Z,7.35
2023-04-29T22:12:42.753Z,6.07
2023-04-29T22:15:17.449Z,9.85
2023-04-29T22:17:54.753Z,6.60
2023-04-29T22:20:21.746Z,7.85
2023-04-29T22:22:48.618Z,9.02
2023-04-29T22:25:15.436Z,7.20
2023-04-29T22:27:42.207Z,7.00
2023-04-29T22:30:09.450Z,7.82
2023-04-29T22:32:36.389Z,6.30
2023-04-29T22:35:03.476Z,9.35
2023-04-29T22:37:30.298Z,6.40
2023-04-29T22:39:57.308Z,8.52
2023-04-29T22:42:24.148Z,8.85
2023-04-29T22:44:51.102Z,8.82
2023-04-29T22:47:17.914Z,7.88
2023-04-29T22:49:44.808Z,7.32
2023-04-29T22:52:11.675Z,5.90
2023-04-29T22:54:38.469Z,6.68
2023-04-29T22:57:05.422Z,6.18
2023-04-29T22:59:32.226Z,11.18
2023-04-29T23:01:59.577Z,4.68
2023-04-29T23:04:26.765Z,7.55
2023-04-29T23:06:53.574Z,4.72
2023-04-29T23:09:20.393Z,12.55
2023-04-29T23:11:47.257Z,8.05
2023-04-29T23:14:14.097Z,10.30
2023-04-29T23:16:40.856Z,6.57
2023-04-29T23:19:07.667Z,5.57
2023-04-29T23:21:34.508Z,6.78
2023-04-29T23:24:01.327Z,10.40
2023-04-29T23:26:28.172Z,5.60
2023-04-29T23:28:54.985Z,10.20
2023-04-29T23:31:21.782Z,5.75
2023-04-29T23:33:48.932Z,7.20
2023-04-29T23:36:15.906Z,7.68
2023-04-29T23:38:42.758Z,6.43
2023-04-29T23:41:09.540Z,7.85
2023-04-29T23:43:36.341Z,6.13
2023-04-29T23:46:03.206Z,9.13
2023-04-29T23:48:30.020Z,6.95
2023-04-29T23:50:56.848Z,4.85
2023-04-29T23:53:23.688Z,7.53
2023-04-29T23:55:50.536Z,10.07
2023-04-29T23:58:17.345Z,9.90
